Oakridge, Oregon
Current Conditions -  °F | °C
As of 2:54 PM on Thursday 18 Dec 2014 (Local Time) from KEUG Reporting Station
Overcast Overcast  
Wind Chill: 54°   Ceiling: 6500
Heat Index: 54°   Visibility: 10mi
Dew Point: 47°   Wind: 5mph
Humidity: 77%   Direction: 200°SSW
Pressure: 29.86"   Gusts: NA
Location:  43.75°N, 122.46°W
Report Text: KEUG 182254Z 20004KT 10SM FEW020 BKN065 OVC080 12/08 A2986 RMK AO2 SLP112 T01220083
Loading
Personal Weather Stations






























Interactive Weather Map New forecast layout! Learn more

10-Day Weather Forecast

Advertisements
Track Severe Weather on mobile